Terminal Aerodrome Forecast
Issued by NWS

Home | Current Version | Previous Version | Text Only | Print | Product List | Glossary On
Versions: 1 2 3 4 5 6 7 8 9 10 11 12 13 14 15 16 17 18 19 20
000
FTAK31 PAJN 240526
TAFASI
TAF
PASI 240526Z 2406/2506 30010KT P6SM FEW030
     FM241600 17010KT 2SM -SN BR SCT012 OVC020
     FM242100 17015G23KT 6SM -RA SCT010 BKN020
     FM250500 13008KT P6SM -SHRA FEW010 BKN040=

USA.gov is the U.S. government's official web portal to all federal, state and local government web resources and services.